Terminal Aerodrome Forecast
Issued by NWS

Home | Current Version | Previous Version | Text Only | Print | Product List | Glossary On
Versions: 1 2 3 4 5 6 7 8 9 10 11 12 13 14 15 16 17 18 19 20 21 22 23 24
034
FTAK31 PAFA 052329
TAFATA
TAF
PATA 052329Z 0600/0624 11006KT P6SM SCT035 BKN050 OVC070
      TEMPO 0600/0604 -TSRA SCT035 BKN050CB OVC070
     FM060400 VRB05KT P6SM VCSH SCT035 BKN050 OVC070
     FM060900 VRB03KT P6SM SCT050 BKN100=

USA.gov is the U.S. government's official web portal to all federal, state and local government web resources and services.